Flight Track Log - Related Links

Times and Time Zones

All times are in EDT time to prevent confusion due to time zone crossing. See the SWA1718 flight status page for this flight to view local times or setup timezone preferences in your user account.

Time Position Orientation Groundspeed Altitude Reporting Facility
EDT Latitude Longitude Course Direction KTS MPH feet Rate Location/Type
Mon 03:48:15 PM 32.8167 -96.8333 128° Southeast 156 180 1,900  Level Dallas / Fort Worth TRACON
Mon 03:49:10 PM 32.7833 -96.7833 128° Southeast 206 237 4,200 2,400 Climbing Dallas / Fort Worth TRACON
Mon 03:50:10 PM 32.7500 -96.7667 157° South 225 259 6,500 2,200 Climbing Dallas / Fort Worth TRACON
Mon 03:51:10 PM 32.7000 -96.8167 220° Southwest 246 283 8,600 2,500 Climbing Dallas / Fort Worth TRACON
Mon 03:52:10 PM 32.6833 -96.9167 259° West 284 327 11,500 2,809 Climbing Dallas / Fort Worth TRACON
Mon 03:54:03 PM 32.7725 -97.0972 300° West 345 397 16,700 2,879 Climbing Fort Worth Center
Mon 03:55:03 PM 32.8247 -97.2008 301° West 361 415 19,800 2,800 Climbing Fort Worth Center
Mon 03:56:03 PM 32.8731 -97.2972 301° West 372 428 22,300 2,550 Climbing Fort Worth Center
Mon 03:57:03 PM 32.9314 -97.4183 300° West 395 455 24,900 2,500 Climbing Fort Worth Center
Mon 03:58:03 PM 32.9878 -97.5297 301° West 400 460 27,300 2,050 Climbing Fort Worth Center
Mon 03:59:03 PM 33.0461 -97.6439 301° West 395 455 29,000 1,900 Climbing Fort Worth Center
Mon 04:00:03 PM 33.1000 -97.7606 299° West 402 463 31,100 2,150 Climbing Fort Worth Center
Mon 04:01:03 PM 33.1372 -97.8822 290° West 396 456 33,300 2,000 Climbing Fort Worth Center
Mon 04:02:03 PM 33.1764 -98.0042 291° West 391 450 35,100 1,350 Climbing Fort Worth Center
Mon 04:03:03 PM 33.2175 -98.1361 290° West 386 444 36,000 600 Climbing Fort Worth Center
Mon 04:04:03 PM 33.2564 -98.2606 291° West 391 450 36,300 950 Climbing Fort Worth Center
Mon 04:05:03 PM 33.2889 -98.3628 291° West 391 450 37,900 850 Climbing Fort Worth Center
Mon 04:06:03 PM 33.3256 -98.4850 290° West 379 436 38,000 50 Climbing Fort Worth Center
Mon 04:07:03 PM 33.3683 -98.6122 292° West 386 444 38,000  Level Fort Worth Center
Mon 04:08:03 PM 33.4067 -98.7372 290° West 391 450 38,000  Level Fort Worth Center
Mon 04:09:03 PM 33.4428 -98.8597 289° West 391 450 38,000  Level Fort Worth Center
Mon 04:10:03 PM 33.4789 -98.9825 289° West 396 456 38,000  Level Fort Worth Center
Mon 04:11:03 PM 33.5317 -99.1031 298° West 396 456 38,000  Level Fort Worth Center
Mon 04:12:03 PM 33.6011 -99.2067 309° West 400 460 38,000  Level Fort Worth Center
Mon 04:13:03 PM 33.6725 -99.3128 309° West 405 466 38,000  Level Fort Worth Center
Mon 04:14:03 PM 33.7442 -99.4169 310° West 405 466 38,000  Level Fort Worth Center
Mon 04:15:03 PM 33.8153 -99.5208 310° West 405 466 38,000  Level Fort Worth Center
Mon 04:16:03 PM 33.8844 -99.6278 308° West 405 466 38,000  Level Fort Worth Center
Mon 04:17:03 PM 33.9556 -99.7322 309° West 405 466 38,000  Level Fort Worth Center
Mon 04:18:03 PM 34.0267 -99.8419 308° West 405 466 38,000  Level Fort Worth Center
Mon 04:19:03 PM 34.0997 -99.9467 310° West 400 460 38,000 -850 Level Fort Worth Center
Mon 04:20:03 PM 34.1683 -100.0517 308° West 400 460 36,300 -2,534 Descending Fort Worth Center
Mon 04:21:44 PM 34.2875 -100.2322 309° West 404 465 31,200 -2,613 Descending Albuquerque Center
Mon 04:22:46 PM 34.3594 -100.3406 309° West 411 473 29,200 -1,984 Descending Albuquerque Center
Mon 04:23:48 PM 34.4281 -100.4447 309° West 402 463 27,100 -1,984 Descending Albuquerque Center
Mon 04:24:50 PM 34.4928 -100.5439 308° West 384 442 25,100 -1,500 Descending Albuquerque Center
Mon 04:25:52 PM 34.5664 -100.6575 308° West 363 418 24,000 -1,805 Descending Albuquerque Center
Mon 04:26:53 PM 34.6228 -100.7425 309° West 332 382 21,400 -2,341 Descending Albuquerque Center
Mon 04:27:55 PM 34.6825 -100.8372 307° West 346 398 19,200 -2,032 Descending Albuquerque Center
Mon 04:28:57 PM 34.7414 -100.9256 309° West 341 392 17,200 -1,790 Descending Albuquerque Center
Mon 04:29:59 PM 34.7961 -101.0111 308° West 328 377 15,500 -1,694 Descending Albuquerque Center
Mon 04:31:01 PM 34.8542 -101.0900 312° West 317 365 13,700 -1,597 Descending Albuquerque Center
Mon 04:32:03 PM 34.9261 -101.1817 314° West 312 359 12,200 -1,452 Descending Albuquerque Center
Mon 04:33:05 PM 34.9842 -101.2558 314° West 307 353 10,700 -1,161 Descending Albuquerque Center
Mon 04:34:07 PM 35.0386 -101.3275 313° West 296 341 9,800 -1,016 Descending Albuquerque Center
Mon 04:35:09 PM 35.0897 -101.3942 313° West 282 325 8,600 -823 Descending Albuquerque Center
Mon 04:36:11 PM 35.1386 -101.4569 314° West 270 311 8,100 -677 Descending Albuquerque Center
Mon 04:37:13 PM 35.1806 -101.5122 313° West 244 281 7,200 -1,161 Descending Albuquerque Center
Mon 04:38:15 PM 35.2342 -101.5803 314° West 235 270 5,700 -1,113 Descending Albuquerque Center
Mon 04:39:17 PM 35.2711 -101.6317 311° West 219 252 4,900 -677 Descending Albuquerque Center
Mon 04:40:19 PM 35.2558 -101.6703 244° Southwest 167 192 4,300 -677 Descending Albuquerque Center
Mon 04:41:21 PM 35.2219 -101.7111 225° Southwest 151 174 3,500 -774 Descending Albuquerque Center
Mon 04:43:00 PM 35.2167 -101.7000 219° Southwest  Level FlightAware Approximate

Login

Don't have an account? Register now (free) for customized features, flight alerts, and more!